sensor_id;sensor_type;location;lat;lon;timestamp;P1;durP1;ratioP1;P2;durP2;ratioP2
26181;SDS011;13927;51.534;11.866;2023-12-20T00:00:35;5.38;;;3.55;;
26181;SDS011;13927;51.534;11.866;2023-12-20T00:03:02;5.80;;;3.25;;
26181;SDS011;13927;51.534;11.866;2023-12-20T00:05:29;4.55;;;2.78;;
26181;SDS011;13927;51.534;11.866;2023-12-20T00:07:57;5.80;;;2.72;;
26181;SDS011;13927;51.534;11.866;2023-12-20T00:10:22;4.70;;;2.78;;
26181;SDS011;13927;51.534;11.866;2023-12-20T00:12:48;5.07;;;3.28;;
26181;SDS011;13927;51.534;11.866;2023-12-20T00:15:14;6.55;;;3.15;;
26181;SDS011;13927;51.534;11.866;2023-12-20T00:17:39;4.70;;;2.38;;
26181;SDS011;13927;51.534;11.866;2023-12-20T00:20:05;5.30;;;2.80;;
26181;SDS011;13927;51.534;11.866;2023-12-20T00:22:32;6.43;;;3.38;;
26181;SDS011;13927;51.534;11.866;2023-12-20T00:24:57;4.68;;;3.08;;
26181;SDS011;13927;51.534;11.866;2023-12-20T00:27:23;5.20;;;2.92;;
26181;SDS011;13927;51.534;11.866;2023-12-20T00:29:49;6.55;;;3.28;;
26181;SDS011;13927;51.534;11.866;2023-12-20T00:32:15;5.18;;;2.97;;
26181;SDS011;13927;51.534;11.866;2023-12-20T00:34:41;4.70;;;2.90;;
26181;SDS011;13927;51.534;11.866;2023-12-20T00:37:08;6.28;;;3.00;;
26181;SDS011;13927;51.534;11.866;2023-12-20T00:39:34;4.82;;;3.30;;
26181;SDS011;13927;51.534;11.866;2023-12-20T00:41:59;5.47;;;3.13;;
26181;SDS011;13927;51.534;11.866;2023-12-20T00:44:25;7.03;;;3.38;;
26181;SDS011;13927;51.534;11.866;2023-12-20T00:46:51;4.88;;;2.80;;
26181;SDS011;13927;51.534;11.866;2023-12-20T00:49:17;4.53;;;2.78;;
26181;SDS011;13927;51.534;11.866;2023-12-20T00:51:42;5.50;;;3.28;;
26181;SDS011;13927;51.534;11.866;2023-12-20T00:54:08;4.97;;;2.83;;
26181;SDS011;13927;51.534;11.866;2023-12-20T00:56:34;4.78;;;2.90;;
26181;SDS011;13927;51.534;11.866;2023-12-20T00:59:00;6.85;;;3.25;;
26181;SDS011;13927;51.534;11.866;2023-12-20T01:01:26;5.22;;;2.88;;
26181;SDS011;13927;51.534;11.866;2023-12-20T01:03:51;5.95;;;2.95;;
26181;SDS011;13927;51.534;11.866;2023-12-20T01:06:17;5.45;;;3.28;;
26181;SDS011;13927;51.534;11.866;2023-12-20T01:08:43;5.07;;;3.20;;
26181;SDS011;13927;51.534;11.866;2023-12-20T01:11:09;5.32;;;3.28;;
26181;SDS011;13927;51.534;11.866;2023-12-20T01:13:34;4.63;;;3.08;;
26181;SDS011;13927;51.534;11.866;2023-12-20T01:16:00;5.93;;;3.50;;
26181;SDS011;13927;51.534;11.866;2023-12-20T01:18:26;4.65;;;2.88;;
26181;SDS011;13927;51.534;11.866;2023-12-20T01:20:52;5.70;;;3.47;;
26181;SDS011;13927;51.534;11.866;2023-12-20T01:23:17;5.55;;;3.13;;
26181;SDS011;13927;51.534;11.866;2023-12-20T01:25:43;4.78;;;2.40;;
26181;SDS011;13927;51.534;11.866;2023-12-20T01:28:09;4.85;;;3.00;;
26181;SDS011;13927;51.534;11.866;2023-12-20T01:30:34;6.18;;;3.50;;
26181;SDS011;13927;51.534;11.866;2023-12-20T01:33:00;6.10;;;2.95;;
26181;SDS011;13927;51.534;11.866;2023-12-20T01:35:26;5.72;;;3.10;;
26181;SDS011;13927;51.534;11.866;2023-12-20T01:37:52;5.07;;;3.22;;
26181;SDS011;13927;51.534;11.866;2023-12-20T01:40:21;5.13;;;3.28;;
26181;SDS011;13927;51.534;11.866;2023-12-20T01:42:57;5.45;;;3.13;;
26181;SDS011;13927;51.534;11.866;2023-12-20T01:45:33;5.82;;;3.42;;
26181;SDS011;13927;51.534;11.866;2023-12-20T01:47:59;5.45;;;3.13;;
26181;SDS011;13927;51.534;11.866;2023-12-20T01:50:27;5.57;;;3.17;;
26181;SDS011;13927;51.534;11.866;2023-12-20T01:52:55;5.57;;;3.42;;
26181;SDS011;13927;51.534;11.866;2023-12-20T01:55:25;5.35;;;3.30;;
26181;SDS011;13927;51.534;11.866;2023-12-20T01:57:55;5.13;;;3.22;;
26181;SDS011;13927;51.534;11.866;2023-12-20T02:00:22;6.57;;;3.58;;
26181;SDS011;13927;51.534;11.866;2023-12-20T02:02:51;5.38;;;3.20;;
26181;SDS011;13927;51.534;11.866;2023-12-20T02:05:19;4.93;;;3.42;;
26181;SDS011;13927;51.534;11.866;2023-12-20T02:07:46;4.95;;;3.40;;
26181;SDS011;13927;51.534;11.866;2023-12-20T02:10:12;6.25;;;3.80;;
26181;SDS011;13927;51.534;11.866;2023-12-20T02:12:38;5.22;;;3.50;;
26181;SDS011;13927;51.534;11.866;2023-12-20T02:15:04;7.13;;;4.05;;
26181;SDS011;13927;51.534;11.866;2023-12-20T02:17:31;6.32;;;3.67;;
26181;SDS011;13927;51.534;11.866;2023-12-20T02:19:57;6.50;;;4.10;;
26181;SDS011;13927;51.534;11.866;2023-12-20T02:22:23;5.63;;;3.47;;
26181;SDS011;13927;51.534;11.866;2023-12-20T02:24:49;6.43;;;3.70;;
26181;SDS011;13927;51.534;11.866;2023-12-20T02:27:14;7.80;;;3.83;;
26181;SDS011;13927;51.534;11.866;2023-12-20T02:29:43;5.72;;;3.05;;
26181;SDS011;13927;51.534;11.866;2023-12-20T02:32:08;4.78;;;2.80;;
26181;SDS011;13927;51.534;11.866;2023-12-20T02:34:34;6.95;;;3.08;;
26181;SDS011;13927;51.534;11.866;2023-12-20T02:37:00;6.15;;;3.60;;
26181;SDS011;13927;51.534;11.866;2023-12-20T02:39:25;4.85;;;2.92;;
26181;SDS011;13927;51.534;11.866;2023-12-20T02:41:51;5.28;;;3.03;;
26181;SDS011;13927;51.534;11.866;2023-12-20T02:44:17;5.45;;;3.50;;
26181;SDS011;13927;51.534;11.866;2023-12-20T02:46:42;6.60;;;3.50;;
26181;SDS011;13927;51.534;11.866;2023-12-20T02:49:08;4.70;;;3.08;;
26181;SDS011;13927;51.534;11.866;2023-12-20T02:51:34;5.22;;;3.25;;
26181;SDS011;13927;51.534;11.866;2023-12-20T02:53:59;5.25;;;3.40;;
26181;SDS011;13927;51.534;11.866;2023-12-20T02:56:25;5.03;;;3.08;;
26181;SDS011;13927;51.534;11.866;2023-12-20T02:58:51;5.25;;;3.20;;
26181;SDS011;13927;51.534;11.866;2023-12-20T03:01:16;5.03;;;2.78;;
26181;SDS011;13927;51.534;11.866;2023-12-20T03:03:42;6.00;;;3.30;;
26181;SDS011;13927;51.534;11.866;2023-12-20T03:06:08;5.88;;;3.60;;
26181;SDS011;13927;51.534;11.866;2023-12-20T03:08:34;6.22;;;4.00;;
26181;SDS011;13927;51.534;11.866;2023-12-20T03:10:59;6.03;;;3.00;;
26181;SDS011;13927;51.534;11.866;2023-12-20T03:13:25;5.18;;;3.17;;
26181;SDS011;13927;51.534;11.866;2023-12-20T03:15:51;5.63;;;3.28;;
26181;SDS011;13927;51.534;11.866;2023-12-20T03:18:16;4.70;;;3.33;;
26181;SDS011;13927;51.534;11.866;2023-12-20T03:20:43;6.18;;;3.08;;
26181;SDS011;13927;51.534;11.866;2023-12-20T03:23:09;7.50;;;3.50;;
26181;SDS011;13927;51.534;11.866;2023-12-20T03:25:34;6.95;;;3.88;;
26181;SDS011;13927;51.534;11.866;2023-12-20T03:28:00;5.93;;;3.22;;
26181;SDS011;13927;51.534;11.866;2023-12-20T03:30:26;4.63;;;3.00;;
26181;SDS011;13927;51.534;11.866;2023-12-20T03:32:51;5.75;;;3.45;;
26181;SDS011;13927;51.534;11.866;2023-12-20T03:35:17;9.07;;;3.40;;
26181;SDS011;13927;51.534;11.866;2023-12-20T03:37:43;5.47;;;3.63;;
26181;SDS011;13927;51.534;11.866;2023-12-20T03:40:09;6.97;;;3.65;;
26181;SDS011;13927;51.534;11.866;2023-12-20T03:42:35;7.57;;;3.65;;
26181;SDS011;13927;51.534;11.866;2023-12-20T03:45:00;6.00;;;3.47;;
26181;SDS011;13927;51.534;11.866;2023-12-20T03:47:26;6.38;;;3.97;;
26181;SDS011;13927;51.534;11.866;2023-12-20T03:49:52;7.05;;;3.80;;
26181;SDS011;13927;51.534;11.866;2023-12-20T03:52:18;6.10;;;3.75;;
26181;SDS011;13927;51.534;11.866;2023-12-20T03:54:44;6.38;;;3.60;;
26181;SDS011;13927;51.534;11.866;2023-12-20T03:57:09;6.00;;;3.67;;
26181;SDS011;13927;51.534;11.866;2023-12-20T03:59:36;4.40;;;3.08;;
26181;SDS011;13927;51.534;11.866;2023-12-20T04:02:02;5.95;;;3.40;;
26181;SDS011;13927;51.534;11.866;2023-12-20T04:04:29;7.97;;;4.10;;
26181;SDS011;13927;51.534;11.866;2023-12-20T04:06:55;6.18;;;3.17;;
26181;SDS011;13927;51.534;11.866;2023-12-20T04:09:20;5.35;;;3.42;;
26181;SDS011;13927;51.534;11.866;2023-12-20T04:11:46;4.43;;;3.05;;
26181;SDS011;13927;51.534;11.866;2023-12-20T04:14:12;6.05;;;2.92;;
26181;SDS011;13927;51.534;11.866;2023-12-20T04:16:37;6.30;;;3.13;;
26181;SDS011;13927;51.534;11.866;2023-12-20T04:19:04;5.40;;;3.25;;
26181;SDS011;13927;51.534;11.866;2023-12-20T04:21:29;5.50;;;3.65;;
26181;SDS011;13927;51.534;11.866;2023-12-20T04:23:55;6.55;;;3.85;;
26181;SDS011;13927;51.534;11.866;2023-12-20T04:26:21;6.03;;;3.30;;
26181;SDS011;13927;51.534;11.866;2023-12-20T04:28:47;5.60;;;3.28;;
26181;SDS011;13927;51.534;11.866;2023-12-20T04:31:12;6.05;;;3.80;;
26181;SDS011;13927;51.534;11.866;2023-12-20T04:33:38;5.78;;;3.60;;
26181;SDS011;13927;51.534;11.866;2023-12-20T04:36:04;5.97;;;3.70;;
26181;SDS011;13927;51.534;11.866;2023-12-20T04:38:30;6.75;;;3.30;;
26181;SDS011;13927;51.534;11.866;2023-12-20T04:40:55;6.22;;;3.50;;
26181;SDS011;13927;51.534;11.866;2023-12-20T04:43:21;5.22;;;3.05;;
26181;SDS011;13927;51.534;11.866;2023-12-20T04:45:47;5.97;;;3.38;;
26181;SDS011;13927;51.534;11.866;2023-12-20T04:48:13;5.32;;;3.28;;
26181;SDS011;13927;51.534;11.866;2023-12-20T04:50:38;6.43;;;3.10;;
26181;SDS011;13927;51.534;11.866;2023-12-20T04:53:04;5.30;;;2.95;;
26181;SDS011;13927;51.534;11.866;2023-12-20T04:55:30;5.18;;;2.83;;
26181;SDS011;13927;51.534;11.866;2023-12-20T04:57:56;4.90;;;2.63;;
26181;SDS011;13927;51.534;11.866;2023-12-20T05:00:21;4.63;;;2.83;;
26181;SDS011;13927;51.534;11.866;2023-12-20T05:02:47;5.28;;;2.85;;
26181;SDS011;13927;51.534;11.866;2023-12-20T05:05:13;4.43;;;2.28;;
26181;SDS011;13927;51.534;11.866;2023-12-20T05:07:40;6.65;;;2.72;;
26181;SDS011;13927;51.534;11.866;2023-12-20T05:10:06;4.80;;;2.33;;
26181;SDS011;13927;51.534;11.866;2023-12-20T05:12:35;5.43;;;2.90;;
26181;SDS011;13927;51.534;11.866;2023-12-20T05:15:01;4.38;;;2.50;;
26181;SDS011;13927;51.534;11.866;2023-12-20T05:17:26;4.65;;;2.60;;
26181;SDS011;13927;51.534;11.866;2023-12-20T05:19:52;4.90;;;2.45;;
26181;SDS011;13927;51.534;11.866;2023-12-20T05:22:20;4.47;;;2.65;;
26181;SDS011;13927;51.534;11.866;2023-12-20T05:24:46;5.53;;;2.30;;
26181;SDS011;13927;51.534;11.866;2023-12-20T05:27:12;4.85;;;2.60;;
26181;SDS011;13927;51.534;11.866;2023-12-20T05:29:38;3.03;;;1.95;;
26181;SDS011;13927;51.534;11.866;2023-12-20T05:32:03;4.88;;;2.67;;
26181;SDS011;13927;51.534;11.866;2023-12-20T05:34:30;3.45;;;2.28;;
26181;SDS011;13927;51.534;11.866;2023-12-20T05:36:57;4.47;;;2.53;;
26181;SDS011;13927;51.534;11.866;2023-12-20T05:39:23;3.88;;;2.53;;
26181;SDS011;13927;51.534;11.866;2023-12-20T05:41:49;3.63;;;2.33;;
26181;SDS011;13927;51.534;11.866;2023-12-20T05:44:14;4.32;;;2.47;;
26181;SDS011;13927;51.534;11.866;2023-12-20T05:46:40;3.63;;;2.22;;
26181;SDS011;13927;51.534;11.866;2023-12-20T05:49:06;4.65;;;2.42;;
26181;SDS011;13927;51.534;11.866;2023-12-20T05:51:32;2.95;;;2.10;;
26181;SDS011;13927;51.534;11.866;2023-12-20T05:53:58;3.65;;;2.47;;
26181;SDS011;13927;51.534;11.866;2023-12-20T05:56:24;4.43;;;2.33;;
26181;SDS011;13927;51.534;11.866;2023-12-20T05:58:49;3.60;;;2.45;;
26181;SDS011;13927;51.534;11.866;2023-12-20T06:01:15;5.50;;;2.92;;
26181;SDS011;13927;51.534;11.866;2023-12-20T06:03:44;3.60;;;2.05;;
26181;SDS011;13927;51.534;11.866;2023-12-20T06:06:11;3.88;;;2.10;;
26181;SDS011;13927;51.534;11.866;2023-12-20T06:08:38;3.28;;;2.03;;
26181;SDS011;13927;51.534;11.866;2023-12-20T06:11:03;4.00;;;2.40;;
26181;SDS011;13927;51.534;11.866;2023-12-20T06:13:30;5.47;;;2.03;;
26181;SDS011;13927;51.534;11.866;2023-12-20T06:15:56;6.85;;;2.17;;
26181;SDS011;13927;51.534;11.866;2023-12-20T06:18:22;4.07;;;1.88;;
26181;SDS011;13927;51.534;11.866;2023-12-20T06:20:49;2.97;;;2.03;;
26181;SDS011;13927;51.534;11.866;2023-12-20T06:23:15;3.17;;;2.25;;
26181;SDS011;13927;51.534;11.866;2023-12-20T06:25:40;5.22;;;2.25;;
26181;SDS011;13927;51.534;11.866;2023-12-20T06:28:06;3.92;;;2.40;;
26181;SDS011;13927;51.534;11.866;2023-12-20T06:30:32;3.33;;;2.10;;
26181;SDS011;13927;51.534;11.866;2023-12-20T06:32:59;6.18;;;3.05;;
26181;SDS011;13927;51.534;11.866;2023-12-20T06:35:24;4.30;;;2.28;;
26181;SDS011;13927;51.534;11.866;2023-12-20T06:37:50;4.28;;;2.38;;
26181;SDS011;13927;51.534;11.866;2023-12-20T06:40:16;3.70;;;2.22;;
26181;SDS011;13927;51.534;11.866;2023-12-20T06:42:42;4.82;;;2.97;;
26181;SDS011;13927;51.534;11.866;2023-12-20T06:45:08;5.90;;;2.92;;
26181;SDS011;13927;51.534;11.866;2023-12-20T06:47:34;4.78;;;2.70;;
26181;SDS011;13927;51.534;11.866;2023-12-20T06:50:00;4.55;;;2.72;;
26181;SDS011;13927;51.534;11.866;2023-12-20T06:52:26;9.70;;;3.38;;
26181;SDS011;13927;51.534;11.866;2023-12-20T06:54:52;5.25;;;2.83;;
26181;SDS011;13927;51.534;11.866;2023-12-20T06:57:17;6.00;;;2.53;;
26181;SDS011;13927;51.534;11.866;2023-12-20T06:59:44;5.80;;;3.03;;
26181;SDS011;13927;51.534;11.866;2023-12-20T07:02:10;5.10;;;3.13;;
26181;SDS011;13927;51.534;11.866;2023-12-20T07:04:39;5.75;;;2.72;;
26181;SDS011;13927;51.534;11.866;2023-12-20T07:07:06;7.03;;;2.85;;
26181;SDS011;13927;51.534;11.866;2023-12-20T07:09:32;5.35;;;2.70;;
26181;SDS011;13927;51.534;11.866;2023-12-20T07:11:58;4.68;;;2.13;;
26181;SDS011;13927;51.534;11.866;2023-12-20T07:14:24;3.65;;;2.00;;
26181;SDS011;13927;51.534;11.866;2023-12-20T07:16:50;3.97;;;2.22;;
26181;SDS011;13927;51.534;11.866;2023-12-20T07:19:16;5.22;;;2.05;;
26181;SDS011;13927;51.534;11.866;2023-12-20T07:21:42;3.78;;;1.58;;
26181;SDS011;13927;51.534;11.866;2023-12-20T07:24:08;4.22;;;1.65;;
26181;SDS011;13927;51.534;11.866;2023-12-20T07:26:34;2.40;;;1.40;;
26181;SDS011;13927;51.534;11.866;2023-12-20T07:29:00;6.05;;;1.27;;
26181;SDS011;13927;51.534;11.866;2023-12-20T07:31:26;4.65;;;1.77;;
26181;SDS011;13927;51.534;11.866;2023-12-20T07:33:51;6.30;;;1.27;;
26181;SDS011;13927;51.534;11.866;2023-12-20T07:36:19;3.63;;;1.40;;
26181;SDS011;13927;51.534;11.866;2023-12-20T07:38:46;3.67;;;1.10;;
26181;SDS011;13927;51.534;11.866;2023-12-20T07:41:12;2.25;;;1.17;;
26181;SDS011;13927;51.534;11.866;2023-12-20T07:43:38;7.32;;;1.40;;
26181;SDS011;13927;51.534;11.866;2023-12-20T07:46:07;3.53;;;1.05;;
26181;SDS011;13927;51.534;11.866;2023-12-20T07:48:36;6.53;;;1.63;;
26181;SDS011;13927;51.534;11.866;2023-12-20T07:51:02;4.25;;;1.42;;
26181;SDS011;13927;51.534;11.866;2023-12-20T07:53:33;2.50;;;1.00;;
26181;SDS011;13927;51.534;11.866;2023-12-20T07:56:00;2.75;;;1.10;;
26181;SDS011;13927;51.534;11.866;2023-12-20T07:58:25;2.67;;;1.20;;
26181;SDS011;13927;51.534;11.866;2023-12-20T08:00:51;3.30;;;1.30;;
26181;SDS011;13927;51.534;11.866;2023-12-20T08:03:17;4.47;;;1.15;;
26181;SDS011;13927;51.534;11.866;2023-12-20T08:05:42;6.07;;;1.15;;
26181;SDS011;13927;51.534;11.866;2023-12-20T08:08:08;5.53;;;1.85;;
26181;SDS011;13927;51.534;11.866;2023-12-20T08:10:35;4.47;;;1.33;;
26181;SDS011;13927;51.534;11.866;2023-12-20T08:13:00;3.08;;;0.85;;
26181;SDS011;13927;51.534;11.866;2023-12-20T08:15:26;4.63;;;1.10;;
26181;SDS011;13927;51.534;11.866;2023-12-20T08:17:52;1.40;;;0.73;;
26181;SDS011;13927;51.534;11.866;2023-12-20T08:20:18;4.47;;;1.65;;
26181;SDS011;13927;51.534;11.866;2023-12-20T08:22:44;4.47;;;1.40;;
26181;SDS011;13927;51.534;11.866;2023-12-20T08:25:09;2.47;;;0.77;;
26181;SDS011;13927;51.534;11.866;2023-12-20T08:27:41;3.78;;;1.00;;
26181;SDS011;13927;51.534;11.866;2023-12-20T08:30:10;4.88;;;1.02;;
26181;SDS011;13927;51.534;11.866;2023-12-20T08:32:36;5.63;;;1.88;;
26181;SDS011;13927;51.534;11.866;2023-12-20T08:35:02;2.78;;;1.20;;
26181;SDS011;13927;51.534;11.866;2023-12-20T08:37:28;3.53;;;0.90;;
26181;SDS011;13927;51.534;11.866;2023-12-20T08:39:55;2.97;;;1.20;;
26181;SDS011;13927;51.534;11.866;2023-12-20T08:42:21;5.22;;;1.15;;
26181;SDS011;13927;51.534;11.866;2023-12-20T08:44:47;6.57;;;1.50;;
26181;SDS011;13927;51.534;11.866;2023-12-20T08:47:12;5.22;;;1.40;;
26181;SDS011;13927;51.534;11.866;2023-12-20T08:49:40;5.63;;;1.20;;
26181;SDS011;13927;51.534;11.866;2023-12-20T08:52:06;4.70;;;0.82;;
26181;SDS011;13927;51.534;11.866;2023-12-20T08:54:32;3.85;;;1.42;;
26181;SDS011;13927;51.534;11.866;2023-12-20T08:56:58;9.95;;;1.27;;
26181;SDS011;13927;51.534;11.866;2023-12-20T08:59:23;7.20;;;1.38;;
26181;SDS011;13927;51.534;11.866;2023-12-20T09:01:49;6.80;;;1.20;;
26181;SDS011;13927;51.534;11.866;2023-12-20T09:04:19;4.35;;;0.95;;
26181;SDS011;13927;51.534;11.866;2023-12-20T09:06:45;2.28;;;1.00;;
26181;SDS011;13927;51.534;11.866;2023-12-20T09:09:11;4.10;;;1.10;;
26181;SDS011;13927;51.534;11.866;2023-12-20T09:11:38;3.45;;;1.27;;
26181;SDS011;13927;51.534;11.866;2023-12-20T09:14:04;3.45;;;1.10;;
26181;SDS011;13927;51.534;11.866;2023-12-20T09:16:30;5.38;;;1.63;;
26181;SDS011;13927;51.534;11.866;2023-12-20T09:18:56;9.52;;;1.40;;
26181;SDS011;13927;51.534;11.866;2023-12-20T09:21:22;3.88;;;1.50;;
26181;SDS011;13927;51.534;11.866;2023-12-20T09:23:48;5.10;;;1.67;;
26181;SDS011;13927;51.534;11.866;2023-12-20T09:26:14;5.63;;;1.15;;
26181;SDS011;13927;51.534;11.866;2023-12-20T09:28:40;0.88;;;0.73;;
26181;SDS011;13927;51.534;11.866;2023-12-20T09:31:06;3.30;;;1.02;;
26181;SDS011;13927;51.534;11.866;2023-12-20T09:33:32;4.65;;;1.08;;
26181;SDS011;13927;51.534;11.866;2023-12-20T09:35:58;2.45;;;1.23;;
26181;SDS011;13927;51.534;11.866;2023-12-20T09:38:24;3.97;;;1.20;;
26181;SDS011;13927;51.534;11.866;2023-12-20T09:40:50;5.25;;;1.40;;
26181;SDS011;13927;51.534;11.866;2023-12-20T09:43:18;1.92;;;1.05;;
26181;SDS011;13927;51.534;11.866;2023-12-20T09:45:46;3.38;;;1.17;;
26181;SDS011;13927;51.534;11.866;2023-12-20T09:48:12;2.97;;;1.20;;
26181;SDS011;13927;51.534;11.866;2023-12-20T09:50:41;8.07;;;1.65;;
26181;SDS011;13927;51.534;11.866;2023-12-20T09:53:10;7.07;;;1.80;;
26181;SDS011;13927;51.534;11.866;2023-12-20T09:55:40;4.80;;;2.67;;
26181;SDS011;13927;51.534;11.866;2023-12-20T09:58:07;4.13;;;1.48;;
26181;SDS011;13927;51.534;11.866;2023-12-20T10:00:37;6.57;;;1.60;;
26181;SDS011;13927;51.534;11.866;2023-12-20T10:03:02;7.55;;;2.58;;
26181;SDS011;13927;51.534;11.866;2023-12-20T10:05:31;3.22;;;1.70;;
26181;SDS011;13927;51.534;11.866;2023-12-20T10:07:58;3.67;;;1.63;;
26181;SDS011;13927;51.534;11.866;2023-12-20T10:10:25;5.20;;;1.60;;
26181;SDS011;13927;51.534;11.866;2023-12-20T10:15:35;5.85;;;1.85;;
26181;SDS011;13927;51.534;11.866;2023-12-20T10:18:02;5.97;;;1.63;;
26181;SDS011;13927;51.534;11.866;2023-12-20T10:20:28;5.82;;;1.70;;
26181;SDS011;13927;51.534;11.866;2023-12-20T10:22:55;4.80;;;1.80;;
26181;SDS011;13927;51.534;11.866;2023-12-20T10:25:22;3.30;;;1.80;;
26181;SDS011;13927;51.534;11.866;2023-12-20T10:27:49;3.47;;;1.55;;
26181;SDS011;13927;51.534;11.866;2023-12-20T10:30:15;2.97;;;1.55;;
26181;SDS011;13927;51.534;11.866;2023-12-20T10:32:41;2.35;;;1.33;;
26181;SDS011;13927;51.534;11.866;2023-12-20T10:35:08;5.18;;;1.50;;
26181;SDS011;13927;51.534;11.866;2023-12-20T10:37:35;5.00;;;1.70;;
26181;SDS011;13927;51.534;11.866;2023-12-20T10:40:03;8.00;;;2.08;;
26181;SDS011;13927;51.534;11.866;2023-12-20T10:42:31;5.05;;;1.83;;
26181;SDS011;13927;51.534;11.866;2023-12-20T10:44:59;4.22;;;1.52;;
26181;SDS011;13927;51.534;11.866;2023-12-20T10:47:25;3.90;;;1.65;;
26181;SDS011;13927;51.534;11.866;2023-12-20T10:49:54;4.63;;;1.58;;
26181;SDS011;13927;51.534;11.866;2023-12-20T10:52:22;4.47;;;1.70;;
26181;SDS011;13927;51.534;11.866;2023-12-20T10:54:50;10.40;;;2.00;;
26181;SDS011;13927;51.534;11.866;2023-12-20T10:57:16;3.90;;;1.80;;
26181;SDS011;13927;51.534;11.866;2023-12-20T10:59:44;6.32;;;1.55;;
26181;SDS011;13927;51.534;11.866;2023-12-20T11:02:14;4.90;;;2.03;;
26181;SDS011;13927;51.534;11.866;2023-12-20T11:09:54;6.38;;;1.67;;
26181;SDS011;13927;51.534;11.866;2023-12-20T11:12:35;4.65;;;2.10;;
26181;SDS011;13927;51.534;11.866;2023-12-20T11:15:10;6.65;;;2.08;;
26181;SDS011;13927;51.534;11.866;2023-12-20T11:17:38;4.50;;;1.60;;
26181;SDS011;13927;51.534;11.866;2023-12-20T11:20:05;7.25;;;2.42;;
26181;SDS011;13927;51.534;11.866;2023-12-20T11:22:33;5.68;;;1.73;;
26181;SDS011;13927;51.534;11.866;2023-12-20T11:25:09;6.75;;;1.42;;
26181;SDS011;13927;51.534;11.866;2023-12-20T11:27:47;5.18;;;1.80;;
26181;SDS011;13927;51.534;11.866;2023-12-20T11:30:57;6.97;;;1.77;;
26181;SDS011;13927;51.534;11.866;2023-12-20T11:33:46;2.03;;;1.35;;
26181;SDS011;13927;51.534;11.866;2023-12-20T11:36:16;3.67;;;1.25;;
26181;SDS011;13927;51.534;11.866;2023-12-20T11:38:57;2.70;;;1.30;;
26181;SDS011;13927;51.534;11.866;2023-12-20T11:41:25;3.53;;;1.20;;
26181;SDS011;13927;51.534;11.866;2023-12-20T11:43:55;5.35;;;1.58;;
26181;SDS011;13927;51.534;11.866;2023-12-20T11:46:21;3.03;;;1.30;;
26181;SDS011;13927;51.534;11.866;2023-12-20T11:48:47;6.80;;;1.67;;
26181;SDS011;13927;51.534;11.866;2023-12-20T11:51:13;6.45;;;2.00;;
26181;SDS011;13927;51.534;11.866;2023-12-20T11:53:40;3.55;;;1.65;;
26181;SDS011;13927;51.534;11.866;2023-12-20T11:56:07;4.25;;;1.30;;
26181;SDS011;13927;51.534;11.866;2023-12-20T11:58:34;5.65;;;1.67;;
26181;SDS011;13927;51.534;11.866;2023-12-20T12:01:00;4.93;;;1.50;;
26181;SDS011;13927;51.534;11.866;2023-12-20T12:03:29;5.68;;;1.65;;
26181;SDS011;13927;51.534;11.866;2023-12-20T12:05:55;4.63;;;1.33;;
26181;SDS011;13927;51.534;11.866;2023-12-20T12:08:21;5.30;;;1.30;;
26181;SDS011;13927;51.534;11.866;2023-12-20T12:10:47;3.45;;;1.92;;
26181;SDS011;13927;51.534;11.866;2023-12-20T12:13:13;3.70;;;1.60;;
26181;SDS011;13927;51.534;11.866;2023-12-20T12:15:42;3.28;;;1.10;;
26181;SDS011;13927;51.534;11.866;2023-12-20T12:18:08;3.80;;;1.27;;
26181;SDS011;13927;51.534;11.866;2023-12-20T12:20:35;3.55;;;1.45;;
26181;SDS011;13927;51.534;11.866;2023-12-20T12:23:02;5.00;;;1.85;;
26181;SDS011;13927;51.534;11.866;2023-12-20T12:25:30;6.13;;;1.90;;
26181;SDS011;13927;51.534;11.866;2023-12-20T12:27:58;3.88;;;1.58;;
26181;SDS011;13927;51.534;11.866;2023-12-20T12:30:24;4.03;;;1.40;;
26181;SDS011;13927;51.534;11.866;2023-12-20T12:32:52;3.05;;;1.45;;
26181;SDS011;13927;51.534;11.866;2023-12-20T12:35:18;7.95;;;1.58;;
26181;SDS011;13927;51.534;11.866;2023-12-20T12:37:45;3.20;;;1.60;;
26181;SDS011;13927;51.534;11.866;2023-12-20T12:40:12;7.85;;;1.73;;
26181;SDS011;13927;51.534;11.866;2023-12-20T12:42:41;3.50;;;1.48;;
26181;SDS011;13927;51.534;11.866;2023-12-20T12:45:09;4.15;;;1.40;;
26181;SDS011;13927;51.534;11.866;2023-12-20T12:47:39;3.92;;;1.40;;
26181;SDS011;13927;51.534;11.866;2023-12-20T12:50:05;2.33;;;1.08;;
26181;SDS011;13927;51.534;11.866;2023-12-20T12:52:31;3.97;;;1.25;;
26181;SDS011;13927;51.534;11.866;2023-12-20T12:54:57;4.15;;;1.20;;
26181;SDS011;13927;51.534;11.866;2023-12-20T12:57:22;4.60;;;1.70;;
26181;SDS011;13927;51.534;11.866;2023-12-20T12:59:49;4.28;;;1.30;;
26181;SDS011;13927;51.534;11.866;2023-12-20T13:02:15;4.45;;;2.30;;
26181;SDS011;13927;51.534;11.866;2023-12-20T13:04:41;3.63;;;1.05;;
26181;SDS011;13927;51.534;11.866;2023-12-20T13:07:08;4.93;;;1.20;;
26181;SDS011;13927;51.534;11.866;2023-12-20T13:09:37;6.18;;;1.60;;
26181;SDS011;13927;51.534;11.866;2023-12-20T13:12:05;3.35;;;1.15;;
26181;SDS011;13927;51.534;11.866;2023-12-20T13:14:33;3.75;;;1.70;;
26181;SDS011;13927;51.534;11.866;2023-12-20T13:17:00;6.00;;;1.67;;
26181;SDS011;13927;51.534;11.866;2023-12-20T13:19:29;1.73;;;1.10;;
26181;SDS011;13927;51.534;11.866;2023-12-20T13:21:55;4.70;;;1.83;;
26181;SDS011;13927;51.534;11.866;2023-12-20T13:24:21;3.72;;;1.40;;
26181;SDS011;13927;51.534;11.866;2023-12-20T13:26:47;3.03;;;1.30;;
26181;SDS011;13927;51.534;11.866;2023-12-20T13:29:13;3.35;;;1.55;;
26181;SDS011;13927;51.534;11.866;2023-12-20T13:31:38;2.75;;;1.48;;
26181;SDS011;13927;51.534;11.866;2023-12-20T13:34:05;2.47;;;1.48;;
26181;SDS011;13927;51.534;11.866;2023-12-20T13:36:31;2.13;;;1.33;;
26181;SDS011;13927;51.534;11.866;2023-12-20T13:38:57;3.35;;;1.40;;
26181;SDS011;13927;51.534;11.866;2023-12-20T13:41:23;4.40;;;2.08;;
26181;SDS011;13927;51.534;11.866;2023-12-20T13:43:49;5.13;;;1.30;;
26181;SDS011;13927;51.534;11.866;2023-12-20T13:46:14;2.60;;;1.40;;
26181;SDS011;13927;51.534;11.866;2023-12-20T13:48:40;3.30;;;1.55;;
26181;SDS011;13927;51.534;11.866;2023-12-20T13:51:06;2.30;;;1.30;;
26181;SDS011;13927;51.534;11.866;2023-12-20T13:53:32;1.83;;;1.17;;
26181;SDS011;13927;51.534;11.866;2023-12-20T13:55:58;4.53;;;1.40;;
26181;SDS011;13927;51.534;11.866;2023-12-20T13:58:25;2.47;;;1.23;;
26181;SDS011;13927;51.534;11.866;2023-12-20T14:00:51;4.50;;;1.83;;
26181;SDS011;13927;51.534;11.866;2023-12-20T14:03:17;5.05;;;1.55;;
26181;SDS011;13927;51.534;11.866;2023-12-20T14:05:43;2.95;;;1.50;;
26181;SDS011;13927;51.534;11.866;2023-12-20T14:08:09;2.50;;;1.40;;
26181;SDS011;13927;51.534;11.866;2023-12-20T14:10:35;4.13;;;1.55;;
26181;SDS011;13927;51.534;11.866;2023-12-20T14:13:00;2.83;;;1.30;;
26181;SDS011;13927;51.534;11.866;2023-12-20T14:15:26;3.72;;;1.48;;
26181;SDS011;13927;51.534;11.866;2023-12-20T14:17:52;3.83;;;1.75;;
26181;SDS011;13927;51.534;11.866;2023-12-20T14:20:18;3.13;;;1.48;;
26181;SDS011;13927;51.534;11.866;2023-12-20T14:22:44;8.13;;;1.73;;
26181;SDS011;13927;51.534;11.866;2023-12-20T14:25:11;2.95;;;1.30;;
26181;SDS011;13927;51.534;11.866;2023-12-20T14:27:38;4.97;;;1.35;;
26181;SDS011;13927;51.534;11.866;2023-12-20T14:30:06;3.47;;;1.30;;
26181;SDS011;13927;51.534;11.866;2023-12-20T14:32:34;3.53;;;1.67;;
26181;SDS011;13927;51.534;11.866;2023-12-20T14:35:04;3.38;;;1.63;;
26181;SDS011;13927;51.534;11.866;2023-12-20T14:37:31;3.33;;;1.40;;